KDAL/DAL METAR and TAF weather

Enter ICAO airport designator
Station Type Date Time Source
KDAL METAR 2020/07/13 13:53 UTC NOAA

KDAL 131353Z 22006KT 10SM SCT180 BKN250 31/22 A2989 RMK AO2 SLP112 T03110222


Station Type Date Time Source
KDAL Decoded METAR 2020/07/13 13:53 UTC NOAA

DALLAS LOVE FIELD, TX, United States (KDAL) 32-51N 096-51W 158M
Jul 13, 2020 - 09:53 AM EDT / 2020.07.13 1353 UTC
Wind: from the SW (220 degrees) at 7 MPH (6 KT):0
Visibility: 10 mile(s):0
Sky conditions: mostly cloudy
Temperature: 88.0 F (31.1 C)
Heat index: 94.6 F (34.8 C):1
Dew Point: 72.0 F (22.2 C)
Relative Humidity: 59%
Pressure (altimeter): 29.89 in. Hg (1012 hPa)
ob: KDAL 131353Z 22006KT 10SM SCT180 BKN250 31/22 A2989 RMK AO2 SLP112 T03110222
cycle: 14

Station Type Date Time Source
KDAL TAF 2020/07/13 12:22 UTC NOAA

TAF KDAL 131120Z 1312/1412 15007KT P6SM FEW250
FM131700 18016KT P6SM SCT250

Example: see airport list